SBSM

Details ICAO SBSM (RIA)
Name Santa Maria
Region Brazil
Timezone America/Sao_Paulo (UTC-2.0)
Plans Departing 37
Arriving 32
Stats Elevation 287 ft / 87 m (AMSL)
Location -29.712352° -53.689105°
Runways 2
Magnetic Variation 15.275° W
Sunrise 2017-12-13 08:29:35 UTC / 2017-12-13 06:29:35 Local
Sunset 2017-12-13 22:31:18 UTC / 2017-12-13 20:31:18 Local
Advertisement - Login to hide

Runways

ID Width Length Bearing (true) Bearing (mag) Surface Threshold Offset Overrun Length
02 100 ft / 30 m 5,806 ft / 1,770 m 2.56° 17.83° Asphalt 0 ft / 0 m 185 ft / 56 m
11 148 ft / 45 m 8,836 ft / 2,693 m 93.44° 108.71° Concrete 0 ft / 0 m 1,140 ft / 347 m
20 100 ft / 30 m 5,806 ft / 1,770 m 182.56° 197.83° Asphalt 1,170 ft / 357 m 0 ft / 0 m
29 148 ft / 45 m 8,836 ft / 2,693 m 273.43° 288.70° Concrete 0 ft / 0 m 1,140 ft / 347 m

Map

Weather


0- 5 10 15 20 25 30 35+ Temperature / ° C

Clouds and Precipitation
Forecast for 2017-12-14 06:00 UTC. Updated an hour ago

Ground ~20,000 ft ~40,000 ft Winds

METAR

SBSM 140200Z VRB02KT CAVOK 25/20 Q1010

TAF

TAF SBSM 132130Z 1400/1412 10007KT CAVOK TN24/1406Z TX31/1412Z BECMG 1402/1404 33011KT RMK PDW

Frequencies

Tower 118.85 MHz TWR
Approach 119.35 MHz APP
Tower 118.30 MHz TWR
Approach 121.35 MHz APP
Warning: Do not use this data for real-world aviation or navigation. No guarantee of current accuracy is given.